Weather observations for the past three days for
Goodyear Municipal
Metric (Imperial)
Date Time (mst) Wind (kph) Vis. (km) Weather Sky Cond. Temperature (ºC) Relative Humidity Wind Chill (°C) Heat Index (°C) Pressure Precipitation (cm)
Air Dwpt 6 hour altimeter (cm) sea level (mb) 1 hr 3 hr 6 hr
Max. Min.
07 12:47 Vrbl 9 16.09 Clear SKC 33 -4 9% 31 75.87 0.0
07 11:47 Vrbl 11 16.09 Clear SKC 32 -5 9% 30 75.95 0.0
07 10:47 Vrbl 11 16.09 Clear SKC 31 -6 9% 29 75.97 0.0
07 09:47 Calm 16.09 Clear SKC 28 1 17% 27 76.02 0.0
07 08:47 Vrbl 11 16.09 Clear SKC 26 2 21% 26 76.05 0.0
07 07:47 Vrbl 9 16.09 Clear SKC 23 2 25% 76.05 0.0
07 06:47 Vrbl 6 16.09 Clear SKC 21 2 29% 76.02 0.0
07 05:47 Calm 16.09 Clear SKC 18 1 32% 76 0.0
06 20:47 SW 9 16.09 Clear SKC 24 3 25% 25 76 0.0
06 19:47 SW 9 16.09 Clear SKC 27 1 18% 26 75.92 0.0
06 18:47 SW 13 16.09 Clear SKC 28 1 17% 27 75.9 0.0
06 17:47 SW 13 16.09 Clear SKC 28 1 17% 27 75.9 0.0
06 16:47 Vrbl 7 16.09 Clear SKC 28 2 19% 27 75.92 0.0
06 15:47 SW 17 16.09 Clear SKC 28 2 19% 27 75.97 0.0
06 14:47 S 7 16.09 Clear SKC 27 1 18% 26 76.02 0.0
06 13:47 S 9 16.09 Clear SKC 28 1 17% 27 76.1 0.0
06 12:47 NW 9 16.09 Clear SKC 26 1 20% 25 76.12 0.0
06 11:47 Calm 16.09 Clear SKC 26 1 20% 25 76.2 0.0
06 10:47 SW 15 16.09 Clear SKC 24 3 25% 25 76.23 0.0
06 09:47 SW 13 16.09 Clear SKC 22 3 29% 76.23 0.0
06 08:47 W 11 16.09 Clear SKC 20 4 35% 76.2 0.0
06 07:47 W 11 16.09 Clear SKC 17 3 39% 76.2 0.0
06 06:47 SW 6 16.09 Clear SKC 16 3 42% 76.15 0.0
06 05:47 W 6 16.09 Clear SKC 15 3 45% 76.12 0.0
05 20:47 SW 19 16.09 Partly Cloudy SCT090 21 3 31% 75.87 0.0
05 19:47 W 22 16.09 Partly Cloudy SCT090 22 2 27% 75.82 0.0
05 18:47 SW 26 16.09 Partly Cloudy SCT090 24 2 24% 25 75.77 0.0
05 17:47 SW 28 G 37 16.09 Partly Cloudy SCT090 25 2 22% 25 75.72 0.0
05 16:47 SW 30 G 43 16.09 Mostly Cloudy BKN090 26 3 23% 26 75.69 0.0
05 15:47 SW 28 G 37 16.09 Mostly Cloudy BKN060 BKN090 25 3 24% 25 75.72 0.0
05 14:47 SW 24 16.09 Mostly Cloudy BKN060 BKN090 25 4 26% 25 75.79 0.0
05 13:47 W 28 G 46 16.09 Mostly Cloudy BKN060 BKN090 25 4 26% 25 75.82 0.0
05 12:47 SW 20 G 31 16.09 Mostly Cloudy BKN060 BKN090 24 4 27% 25 75.84 0.0
05 11:47 SW 13 G 30 16.09 Mostly Cloudy BKN060 BKN090 23 6 33% 75.87 0.0
05 10:47 SW 9 G 26 16.09 Mostly Cloudy BKN060 BKN090 22 6 36% 75.9 0.0
05 09:47 S 11 16.09 Mostly Cloudy BKN060 21 5 35% 75.9 0.0
05 08:47 S 19 16.09 Mostly Cloudy BKN060 20 5 38% 75.9 0.0
05 07:47 SW 20 16.09 Mostly Cloudy BKN060 21 6 38% 75.87 0.0
05 06:47 SW 19 16.09 Mostly Cloudy BKN060 19 8 49% 75.87 0.0
05 05:47 SW 13 16.09 Mostly Cloudy BKN100 BKN200 18 9 56% 75.82 0.0
04 20:47 SW 7 16.09 Overcast BKN150 OVC200 23 8 38% 75.87 0.0
04 19:47 W 9 16.09 Overcast BKN150 OVC200 23 7 36% 75.79 0.0
04 18:47 W 17 16.09 Overcast BKN150 OVC200 24 7 34% 25 75.79 0.0
04 17:47 S 13 16.09 Overcast SCT060 BKN150 OVC 24 9 39% 25 75.79 0.0
04 16:47 SW 20 16.09 Overcast SCT060 BKN150 OVC 25 9 36% 26 75.82 0.0
04 15:47 SW 15 16.09 Overcast SCT060 BKN150 OVC 24 9 39% 25 75.84 0.0
04 14:47 SW 15 16.09 Overcast SCT060 BKN150 OVC 24 9 39% 25 75.9 0.0
04 13:47 SW 19 G 30 16.09 Overcast SCT060 BKN150 OVC 23 9 41% 75.95 0.0
Date Time (mst) Wind (kph) Vis. (km) Weather Sky Cond. Air Dwpt Max. Min. Relative Humidity Wind Chill (°C) Heat Index (°C) altimeter (cm) sea level (mb) 1 hr 3 hr 6 hr
6 hour
Temperature (ºC) Pressure Precipitation (cm)